Time;durP1;ratioP1;P1;durP2;ratioP2;P2;SDS_P1;SDS_P2;PMS_P1;PMS_P2;Temp;Humidity;BMP_temperature;BMP_pressure;BME280_temperature;BME280_humidity;BME280_pressure;Samples;Min_cycle;Max_cycle;Signal;HPM_P1;HPM_P2
2024/02/18 09:12:05;;;;;;;6.13;5.63;;;;;;;25.09;43.29;100419.28;6283707;22;1929569;-88
2024/02/18 09:38:19;;;;;;;7.93;7.22;;;;;;;27.28;35.49;100412.91;6319223;22;43914;-89
2024/02/18 09:40:48;;;;;;;6.35;5.75;;;;;;;27.38;34.83;100408.19;6215149;22;41340;-89
2024/02/18 09:43:17;;;;;;;7.72;6.88;;;;;;;27.36;35.06;100415.66;6265711;22;40755;-89
2024/02/18 09:45:49;;;;;;;7.30;6.60;;;;;;;26.94;35.79;100407.53;6265462;22;42547;-89
2024/02/18 09:48:20;;;;;;;7.63;6.87;;;;;;;26.21;36.12;100400.75;6265547;22;43198;-89
2024/02/18 09:51:04;;;;;;;9.37;6.93;;;;;;;25.17;37.10;100357.00;6197515;23;41534;-89
2024/02/18 09:57:18;;;;;;;7.50;6.37;;;;;;;23.80;39.52;100336.94;6248235;22;41066;-89
2024/02/18 10:03:42;;;;;;;7.13;5.70;;;;;;;23.15;38.74;100355.53;6172406;23;43490;-89
2024/02/18 10:13:41;;;;;;;5.77;4.93;;;;;;;22.40;40.42;100318.16;6283920;22;43707;-89
2024/02/18 10:16:15;;;;;;;5.23;4.73;;;;;;;22.01;40.38;100289.28;6259112;22;41275;-89
2024/02/18 10:23:33;;;;;;;6.67;4.87;;;;;;;21.59;41.28;100310.00;6216747;23;42636;-89
2024/02/18 10:30:16;;;;;;;5.83;4.57;;;;;;;21.64;41.30;100307.75;6216515;23;42643;-88
2024/02/18 10:32:44;;;;;;;6.20;5.07;;;;;;;21.70;40.97;100291.91;6258005;22;40498;-88
2024/02/18 10:48:01;;;;;;;6.07;4.90;;;;;;;21.17;41.53;100259.56;6258843;22;40157;-87
2024/02/18 10:55:12;;;;;;;4.20;3.80;;;;;;;20.78;42.78;100212.56;6284408;22;41439;-87
2024/02/18 11:01:56;;;;;;;4.10;3.70;;;;;;;20.61;42.03;100269.66;6312336;22;40590;-87
2024/02/18 11:04:27;;;;;;;4.40;3.63;;;;;;;20.36;42.27;100265.41;6259316;22;41923;-87
2024/02/18 11:07:26;;;;;;;4.23;3.83;;;;;;;20.15;42.47;100250.97;6252298;22;42526;-88
2024/02/18 11:09:56;;;;;;;4.97;4.47;;;;;;;20.05;43.21;100244.59;6252184;22;41433;-86
2024/02/18 13:57:08;;;;;;;5.70;4.47;;;;;;;17.27;48.35;99963.44;6317144;22;20201;-85
2024/02/18 13:59:38;;;;;;;4.80;4.10;;;;;;;17.09;48.58;99929.97;6288154;22;40985;-85
2024/02/18 14:02:30;;;;;;;5.37;4.40;;;;;;;17.16;48.86;99939.28;6314745;22;42767;-84
2024/02/18 14:05:00;;;;;;;5.53;4.07;;;;;;;16.81;48.57;99881.09;6288435;22;41022;-86
2024/02/18 14:07:38;;;;;;;5.67;4.50;;;;;;;17.14;48.50;99946.56;6289626;22;39944;-86
2024/02/18 14:10:11;;;;;;;4.07;3.60;;;;;;;16.97;49.04;99933.53;6288172;22;41266;-87
2024/02/18 14:12:43;;;;;;;5.13;3.67;;;;;;;17.03;49.20;99938.44;6288048;22;43085;-86
2024/02/18 14:15:12;;;;;;;4.57;3.77;;;;;;;16.87;49.95;99912.78;6288387;22;43479;-87
2024/02/18 14:17:41;;;;;;;5.00;3.10;;;;;;;16.80;49.37;99908.00;6288135;22;39271;-86
2024/02/18 14:20:10;;;;;;;3.30;3.00;;;;;;;16.76;49.72;99907.34;6314317;22;41022;-85
2024/02/18 14:22:38;;;;;;;4.30;3.00;;;;;;;16.72;49.80;99895.13;6288251;22;43298;-85
2024/02/18 14:25:07;;;;;;;5.97;3.03;;;;;;;16.68;50.12;99888.31;6287910;22;40978;-86
2024/02/18 14:27:35;;;;;;;3.30;3.00;;;;;;;16.57;49.95;99882.81;6287939;22;39198;-86
2024/02/18 14:30:05;;;;;;;4.77;2.90;;;;;;;16.44;49.89;99876.66;6314398;22;42159;-85
2024/02/18 14:32:33;;;;;;;3.67;3.10;;;;;;;16.31;49.72;99870.44;6288522;22;42514;-86
2024/02/18 14:35:01;;;;;;;3.30;3.00;;;;;;;16.26;50.26;99868.09;6288294;22;41158;-86
2024/02/18 14:37:29;;;;;;;4.13;3.50;;;;;;;16.00;50.89;99839.63;6288357;22;39673;-86
2024/02/18 14:39:56;;;;;;;5.23;3.20;;;;;;;15.91;51.15;99851.81;6288291;22;43518;-87
2024/02/18 14:42:24;;;;;;;4.27;3.27;;;;;;;15.73;51.23;99831.69;6313920;22;42085;-86
2024/02/18 14:44:52;;;;;;;4.83;3.33;;;;;;;15.68;51.86;99833.84;6288044;22;41689;-87
2024/02/18 14:47:21;;;;;;;4.00;2.93;;;;;;;15.59;52.10;99829.97;6288035;22;40303;-86
2024/02/18 14:49:49;;;;;;;3.10;2.73;;;;;;;15.59;52.16;99823.75;6313822;22;40659;-87
2024/02/18 14:52:16;;;;;;;3.00;2.70;;;;;;;15.59;52.34;99818.41;6313815;22;43836;-86
2024/02/18 14:54:45;;;;;;;3.77;2.70;;;;;;;15.61;52.63;99819.19;6288120;22;41823;-86
2024/02/18 14:57:13;;;;;;;3.07;2.77;;;;;;;15.65;52.74;99824.22;6287860;22;39208;-85
2024/02/18 14:59:40;;;;;;;3.37;2.93;;;;;;;15.70;52.78;99837.28;6291156;22;40869;-84
2024/02/18 15:02:08;;;;;;;3.33;3.03;;;;;;;15.54;53.03;99812.53;6315147;22;42630;-86
2024/02/18 15:04:38;;;;;;;3.17;2.87;;;;;;;15.44;53.30;99798.94;6289255;22;42642;-89
2024/02/18 15:07:06;;;;;;;5.07;3.40;;;;;;;15.44;53.61;99805.16;6315555;22;40832;-87
2024/02/18 15:09:35;;;;;;;3.20;2.90;;;;;;;15.56;53.73;99827.53;6289036;22;41569;-85
2024/02/18 15:12:02;;;;;;;4.17;3.00;;;;;;;15.45;53.49;99804.16;6314925;22;44210;-86
2024/02/18 15:14:30;;;;;;;2.97;2.73;;;;;;;15.58;53.55;99825.56;6287876;22;41566;-85
2024/02/18 15:16:58;;;;;;;3.23;2.90;;;;;;;15.54;53.70;99815.19;6287979;22;39156;-86
2024/02/18 15:19:26;;;;;;;5.00;3.20;;;;;;;15.42;54.54;99798.19;6287450;22;42057;-86
2024/02/18 15:21:54;;;;;;;4.53;3.40;;;;;;;15.46;54.22;99800.53;6287528;22;44545;-85
2024/02/18 15:24:22;;;;;;;3.97;3.27;;;;;;;15.37;54.24;99787.81;6287739;22;42727;-85
2024/02/18 15:26:50;;;;;;;3.40;3.10;;;;;;;15.28;54.54;99792.91;6287589;22;40195;-86
2024/02/18 15:29:17;;;;;;;4.20;3.20;;;;;;;15.30;54.99;99801.69;6313079;22;41938;-84
2024/02/18 15:31:45;;;;;;;6.70;3.80;;;;;;;15.14;55.35;99780.50;6288229;22;42143;-84
2024/02/18 15:34:14;;;;;;;3.87;3.00;;;;;;;15.03;55.25;99777.69;6287581;22;42190;-84
2024/02/18 15:36:42;;;;;;;3.60;3.23;;;;;;;15.09;55.47;99790.59;6288373;22;40862;-84
2024/02/18 15:39:13;;;;;;;3.93;3.33;;;;;;;14.90;56.20;99776.78;6287328;22;41865;-85
2024/02/18 15:41:41;;;;;;;5.67;3.70;;;;;;;14.96;56.47;99803.06;6313200;22;42125;-85
2024/02/18 15:44:09;;;;;;;3.97;3.03;;;;;;;14.80;56.77;99787.19;6313652;22;41126;-85
2024/02/18 15:46:40;;;;;;;4.03;3.27;;;;;;;14.68;57.75;99770.19;6287859;22;41719;-84
2024/02/18 15:49:07;;;;;;;4.27;3.87;;;;;;;14.71;57.63;99788.63;6288728;22;41170;-84
2024/02/18 15:51:35;;;;;;;3.53;3.23;;;;;;;14.54;58.47;99769.34;6289304;22;41762;-85
2024/02/18 15:54:03;;;;;;;5.80;3.33;;;;;;;14.40;58.39;99751.56;6292118;22;42581;-84
2024/02/18 15:56:33;;;;;;;6.03;4.10;;;;;;;14.41;58.73;99761.28;6290815;22;42262;-85
2024/02/18 15:59:00;;;;;;;6.07;3.37;;;;;;;14.39;59.01;99765.81;6315167;22;43167;-84
2024/02/18 16:01:30;;;;;;;5.30;4.03;;;;;;;14.24;59.37;99749.00;6321158;22;42378;-84
2024/02/18 16:04:07;;;;;;;4.23;3.73;;;;;;;13.90;60.33;99688.16;6293173;22;41437;-84
2024/02/18 16:06:44;;;;;;;5.20;3.87;;;;;;;13.84;60.52;99705.38;6319190;22;39460;-85
2024/02/18 16:09:49;;;;;;;3.57;3.20;;;;;;;13.73;60.98;99696.31;6314456;22;41979;-84
2024/02/18 16:15:51;;;;;;;5.10;3.60;;;;;;;13.94;60.82;99746.47;6176029;22;42147;-86
2024/02/18 16:18:19;;;;;;;3.47;3.03;;;;;;;13.60;60.91;99707.72;6289560;22;39064;-84
2024/02/18 16:20:47;;;;;;;3.43;2.97;;;;;;;13.85;60.75;99755.00;6313508;22;41920;-86
2024/02/18 16:23:14;;;;;;;3.93;3.07;;;;;;;13.78;60.79;99748.34;6289697;22;43831;-87
2024/02/18 16:25:42;;;;;;;4.13;2.93;;;;;;;13.75;60.79;99747.66;6288926;22;41416;-86
2024/02/18 16:28:09;;;;;;;3.43;2.50;;;;;;;13.72;60.76;99748.75;6314928;22;40469;-86
2024/02/18 16:30:37;;;;;;;3.60;2.57;;;;;;;13.67;60.99;99761.47;6286917;22;42968;-86
2024/02/18 16:33:07;;;;;;;2.97;2.70;;;;;;;13.42;61.66;99730.16;6288141;22;43556;-87
2024/02/18 16:35:35;;;;;;;2.97;2.43;;;;;;;13.54;62.16;99756.03;6262903;22;43625;-87
2024/02/18 16:38:03;;;;;;;2.93;2.47;;;;;;;13.33;62.89;99736.03;6288735;22;39293;-86
2024/02/18 16:40:30;;;;;;;3.37;2.63;;;;;;;13.27;62.78;99731.91;6313403;22;43439;-87
2024/02/18 16:42:58;;;;;;;3.43;2.70;;;;;;;13.28;63.41;99736.28;6288064;22;42783;-85
2024/02/18 16:45:30;;;;;;;3.10;2.80;;;;;;;13.06;63.37;99705.72;6287943;22;42550;-87
2024/02/18 16:47:58;;;;;;;3.67;2.67;;;;;;;13.21;63.35;99742.94;6288278;22;39234;-85
2024/02/18 16:50:39;;;;;;;4.17;2.80;;;;;;;13.19;64.27;99739.50;6287966;22;40705;-89
2024/02/18 16:53:07;;;;;;;4.60;2.87;;;;;;;12.84;64.66;99690.16;6288194;22;41992;-84
2024/02/18 16:55:37;;;;;;;2.77;2.57;;;;;;;13.08;65.97;99725.97;6286051;22;41258;-88
2024/02/18 16:58:06;;;;;;;4.53;2.60;;;;;;;12.92;67.07;99719.81;6284362;22;40296;-86
2024/02/18 17:00:44;;;;;;;3.23;2.80;;;;;;;12.69;67.54;99697.22;6288497;22;43210;-87
2024/02/18 17:03:17;;;;;;;3.10;2.67;;;;;;;12.26;67.70;99631.53;6289176;22;43187;-87
2024/02/18 17:05:47;;;;;;;3.07;2.77;;;;;;;12.55;68.58;99695.34;6314802;22;42654;-88
2024/02/18 17:08:19;;;;;;;3.43;2.87;;;;;;;12.22;69.16;99649.47;6290934;22;38984;-85
2024/02/18 17:10:47;;;;;;;3.03;2.53;;;;;;;12.10;69.48;99629.78;6289879;22;40272;-87
2024/02/18 17:13:16;;;;;;;3.40;2.50;;;;;;;12.51;70.35;99703.59;6317017;22;42905;-86
2024/02/18 17:15:44;;;;;;;3.77;2.57;;;;;;;12.40;71.15;99684.75;6290581;22;41063;-87
2024/02/18 17:18:11;;;;;;;3.20;2.57;;;;;;;12.16;72.52;99679.00;6293985;22;40877;-89
2024/02/18 17:20:42;;;;;;;2.63;2.40;;;;;;;12.11;72.84;99670.47;6293679;22;41782;-86
2024/02/18 17:23:14;;;;;;;3.47;2.80;;;;;;;12.13;73.86;99679.19;6290773;22;42014;-87
2024/02/18 17:25:41;;;;;;;3.37;3.07;;;;;;;11.99;75.45;99657.88;6291618;22;41241;-89
2024/02/18 17:28:11;;;;;;;4.33;2.93;;;;;;;11.75;75.37;99629.06;6297471;22;38585;-88
2024/02/18 17:30:44;;;;;;;5.37;2.73;;;;;;;11.88;75.80;99661.09;6292161;22;42172;-87
2024/02/18 17:33:11;;;;;;;3.30;2.37;;;;;;;11.81;77.69;99649.13;6289807;22;42060;-89
2024/02/18 17:35:39;;;;;;;3.07;2.53;;;;;;;11.51;77.69;99611.78;6291312;22;41040;-87
2024/02/18 17:38:06;;;;;;;3.97;2.53;;;;;;;11.76;79.26;99667.94;6295247;22;40307;-88
2024/02/18 17:40:36;;;;;;;5.03;3.27;;;;;;;11.55;79.61;99647.84;6295787;22;41407;-87
2024/02/18 17:43:04;;;;;;;3.43;2.97;;;;;;;11.55;81.20;99655.78;6288955;22;41908;-89
2024/02/18 17:45:31;;;;;;;3.53;2.67;;;;;;;11.48;82.26;99654.44;6288036;22;42881;-87
2024/02/18 17:47:59;;;;;;;4.17;3.13;;;;;;;11.43;82.85;99653.81;6289056;22;40066;-88
2024/02/18 17:50:27;;;;;;;3.33;2.80;;;;;;;11.34;84.16;99649.00;6288767;22;40685;-87
2024/02/18 17:52:55;;;;;;;3.63;3.30;;;;;;;11.39;85.32;99679.63;6289081;22;42493;-89
2024/02/18 17:55:26;;;;;;;4.27;3.33;;;;;;;11.30;85.74;99676.59;6289348;22;41561;-86
2024/02/18 17:57:55;;;;;;;3.23;2.80;;;;;;;11.32;87.21;99686.19;6289413;22;39270;-88
2024/02/18 18:00:24;;;;;;;5.33;3.57;;;;;;;11.26;86.41;99690.94;6289426;22;42485;-87
2024/02/18 18:02:52;;;;;;;5.07;3.57;;;;;;;11.26;86.65;99688.28;6290313;22;43155;-89
2024/02/18 18:05:21;;;;;;;4.77;3.70;;;;;;;11.27;88.01;99679.41;6290315;22;41253;-91
2024/02/18 18:07:50;;;;;;;5.50;3.47;;;;;;;11.32;89.95;99695.94;6290538;22;38555;-88
2024/02/18 18:10:18;;;;;;;6.90;3.10;;;;;;;11.16;90.40;99678.16;6290125;22;41106;-89
2024/02/18 18:12:46;;;;;;;3.30;2.90;;;;;;;11.11;90.17;99669.63;6290776;22;43200;-91
2024/02/18 18:15:19;;;;;;;3.83;3.10;;;;;;;11.15;90.41;99679.09;6288344;22;42131;-91
2024/02/18 18:17:46;;;;;;;4.43;3.20;;;;;;;11.15;90.35;99679.09;6289270;22;40212;-88
2024/02/18 18:20:14;;;;;;;3.50;3.07;;;;;;;11.03;91.27;99661.19;6315138;22;40937;-89
2024/02/18 18:22:44;;;;;;;3.50;3.20;;;;;;;11.06;91.12;99665.47;6288897;22;41995;-90
2024/02/18 18:25:12;;;;;;;5.37;3.13;;;;;;;11.04;91.83;99657.59;6288804;22;42844;-92
2024/02/18 18:27:41;;;;;;;4.43;3.47;;;;;;;11.11;92.38;99666.97;6289222;22;40720;-90
2024/02/18 18:30:10;;;;;;;5.03;3.70;;;;;;;10.97;92.18;99648.25;6289898;22;40883;-89
2024/02/18 18:32:39;;;;;;;5.27;3.33;;;;;;;10.88;93.40;99632.81;6293103;22;41754;-89
2024/02/18 18:35:09;;;;;;;3.40;3.10;;;;;;;10.98;92.29;99652.63;6291668;22;41864;-88
2024/02/18 18:37:37;;;;;;;4.40;3.10;;;;;;;10.94;94.17;99635.16;6290172;22;41168;-90
2024/02/18 18:40:07;;;;;;;3.93;3.37;;;;;;;10.87;93.99;99631.13;6289944;22;40809;-87
2024/02/18 18:42:36;;;;;;;5.40;3.40;;;;;;;10.98;93.22;99647.31;6291216;22;42451;-92
2024/02/18 18:45:07;;;;;;;4.77;3.17;;;;;;;10.89;92.72;99641.63;6269319;22;41225;-91
2024/02/18 18:47:35;;;;;;;4.77;3.30;;;;;;;10.64;92.95;99591.69;6290702;22;39457;-92
2024/02/18 18:50:07;;;;;;;3.63;3.13;;;;;;;10.68;93.66;99598.53;6289441;22;40549;-91
2024/02/18 18:52:38;;;;;;;5.17;3.33;;;;;;;10.51;94.49;99569.44;6290427;22;43238;-89
2024/02/18 18:55:06;;;;;;;3.97;3.57;;;;;;;10.79;95.06;99615.59;6290159;22;41223;-89
2024/02/18 18:57:34;;;;;;;4.33;3.80;;;;;;;10.75;95.37;99603.47;6292520;22;40015;-89
2024/02/18 19:00:05;;;;;;;4.57;4.13;;;;;;;10.74;96.57;99606.19;6301046;22;41930;-86
2024/02/18 19:02:33;;;;;;;3.97;3.47;;;;;;;10.55;96.42;99576.25;6334428;22;42999;-86
2024/02/18 19:05:00;;;;;;;4.70;3.97;;;;;;;10.50;96.28;99570.34;6315747;22;40844;-89
2024/02/18 19:07:32;;;;;;;3.83;3.20;;;;;;;10.69;95.99;99597.59;6297756;22;40237;-88
2024/02/18 19:10:01;;;;;;;4.90;2.97;;;;;;;10.65;97.06;99606.63;6294348;22;42152;-89
2024/02/18 19:12:28;;;;;;;5.30;3.07;;;;;;;10.63;96.91;99604.06;6293108;22;44502;-87
2024/02/18 19:14:56;;;;;;;4.50;3.57;;;;;;;10.63;96.90;99605.88;6293534;22;42655;-89
2024/02/18 19:17:28;;;;;;;3.60;3.07;;;;;;;10.59;98.17;99602.53;6290922;22;39468;-87
2024/02/18 19:19:55;;;;;;;4.13;3.57;;;;;;;10.55;98.01;99589.50;6290238;22;40858;-89
2024/02/18 19:22:23;;;;;;;4.63;3.27;;;;;;;10.56;97.09;99586.78;6291460;22;41886;-87
2024/02/18 19:24:52;;;;;;;5.73;3.60;;;;;;;10.60;96.91;99592.78;6289957;22;41561;-90
2024/02/18 19:27:20;;;;;;;4.13;3.13;;;;;;;10.61;97.72;99583.91;6291065;22;40100;-89
2024/02/18 19:29:48;;;;;;;4.20;3.30;;;;;;;10.62;97.33;99590.94;6316859;22;41896;-88
2024/02/18 19:32:15;;;;;;;6.13;3.27;;;;;;;10.57;97.71;99600.88;6318078;22;43674;-88
2024/02/18 19:34:44;;;;;;;3.53;2.87;;;;;;;10.65;97.66;99606.63;6294870;22;41207;-88
2024/02/18 19:37:12;;;;;;;3.07;2.63;;;;;;;10.49;97.63;99573.94;6287393;22;38896;-88
2024/02/18 19:39:40;;;;;;;3.37;2.73;;;;;;;10.62;97.44;99604.16;6290506;22;41067;-90
2024/02/18 19:42:11;;;;;;;3.40;3.10;;;;;;;10.64;97.46;99599.63;6315715;22;42893;-88
2024/02/18 19:44:42;;;;;;;3.97;2.90;;;;;;;10.59;97.40;99585.78;6288550;22;41741;-88
2024/02/18 19:47:09;;;;;;;3.50;2.53;;;;;;;10.38;97.75;99550.66;6292222;22;39072;-92
2024/02/18 19:49:37;;;;;;;3.93;2.73;;;;;;;10.59;97.86;99581.34;6290791;22;41047;-89
2024/02/18 19:52:05;;;;;;;2.53;2.10;;;;;;;10.61;98.00;99578.63;6290404;22;42175;-90
2024/02/18 19:54:32;;;;;;;2.93;2.63;;;;;;;10.62;98.13;99588.28;6287690;22;41341;-88
2024/02/18 19:57:00;;;;;;;4.90;2.80;;;;;;;10.65;98.40;99599.53;6289414;22;39934;-90
2024/02/18 19:59:29;;;;;;;3.83;2.13;;;;;;;10.56;97.68;99577.97;6289591;22;40920;-88
2024/02/18 20:01:57;;;;;;;3.57;2.50;;;;;;;10.61;98.27;99586.56;6290354;22;43901;-87
2024/02/18 20:04:24;;;;;;;3.60;2.63;;;;;;;10.64;98.36;99586.38;6289687;22;42489;-90
2024/02/18 20:06:53;;;;;;;2.93;2.50;;;;;;;10.58;98.74;99573.47;6315715;22;39982;-87
2024/02/18 20:09:21;;;;;;;3.40;2.33;;;;;;;10.62;98.48;99585.63;6290254;22;41910;-91
2024/02/18 20:11:50;;;;;;;4.93;2.80;;;;;;;10.61;98.94;99586.56;6315567;22;41978;-88
2024/02/18 20:14:18;;;;;;;3.83;2.70;;;;;;;10.54;99.58;99578.06;6290682;22;41302;-88
2024/02/18 20:16:47;;;;;;;4.87;2.33;;;;;;;10.49;100.00;99585.38;6289847;22;40093;-89
2024/02/18 20:19:14;;;;;;;3.63;2.57;;;;;;;10.48;100.00;99569.56;6315303;22;42364;-90
2024/02/18 20:21:42;;;;;;;4.40;2.83;;;;;;;10.49;100.00;99579.22;6289711;22;41844;-87
2024/02/18 20:24:09;;;;;;;4.53;2.70;;;;;;;10.49;100.00;99576.59;6289077;22;41139;-88
2024/02/18 20:26:37;;;;;;;3.37;2.73;;;;;;;10.54;100.00;99577.19;6289162;22;41463;-86
2024/02/18 20:29:05;;;;;;;3.67;2.40;;;;;;;10.53;100.00;99570.19;6287986;22;41051;-89
2024/02/18 20:31:32;;;;;;;3.83;2.53;;;;;;;10.64;100.00;99583.72;6287361;22;43315;-88
2024/02/18 20:34:02;;;;;;;3.80;2.50;;;;;;;10.49;100.00;99564.19;6287989;22;42493;-86
2024/02/18 20:36:30;;;;;;;2.67;2.00;;;;;;;10.44;100.00;99542.38;6287803;22;41688;-88
2024/02/18 20:38:58;;;;;;;2.30;2.10;;;;;;;10.51;100.00;99550.88;6287843;22;42812;-87
2024/02/18 20:41:27;;;;;;;3.53;2.20;;;;;;;10.56;100.00;99551.50;6313856;22;42844;-87
2024/02/18 20:43:55;;;;;;;2.57;2.07;;;;;;;10.69;100.00;99571.13;6287850;22;42573;-87
2024/02/18 20:46:23;;;;;;;3.30;2.03;;;;;;;10.75;99.88;99576.13;6287928;22;41022;-89
2024/02/18 20:48:50;;;;;;;3.47;1.80;;;;;;;10.74;99.77;99569.97;6287713;22;41737;-88
2024/02/18 20:51:19;;;;;;;2.70;2.20;;;;;;;10.75;99.16;99562.88;6285411;22;43872;-90
2024/02/18 20:53:47;;;;;;;1.70;1.60;;;;;;;10.89;98.75;99586.81;6287044;22;41199;-86
2024/02/18 20:56:14;;;;;;;2.57;2.00;;;;;;;10.83;98.38;99563.31;6339659;22;39740;-87
2024/02/18 20:58:43;;;;;;;2.40;1.83;;;;;;;10.93;98.01;99569.84;6287498;22;41029;-87
2024/02/18 21:01:11;;;;;;;2.53;1.90;;;;;;;10.87;98.08;99556.94;6289293;22;43130;-88
2024/02/18 21:03:38;;;;;;;2.30;2.10;;;;;;;10.84;97.40;99557.09;6289022;22;43942;-87
2024/02/18 21:06:07;;;;;;;2.37;2.17;;;;;;;10.98;97.93;99567.81;6289358;22;38816;-88
2024/02/18 21:08:36;;;;;;;2.53;1.70;;;;;;;11.08;97.42;99582.28;6288899;22;40527;-87
2024/02/18 21:11:06;;;;;;;1.67;1.57;;;;;;;11.08;97.14;99576.13;6289248;22;42051;-87
2024/02/18 21:13:33;;;;;;;3.00;1.73;;;;;;;11.04;97.45;99570.13;6288831;22;41413;-88
2024/02/18 21:16:01;;;;;;;1.93;1.73;;;;;;;11.01;97.52;99570.28;6312993;22;38897;-89
2024/02/18 21:18:29;;;;;;;2.43;2.07;;;;;;;11.04;97.65;99575.44;6287818;22;44346;-87
2024/02/18 21:20:56;;;;;;;2.40;1.83;;;;;;;10.93;97.90;99564.53;6287779;22;42060;-88
2024/02/18 21:23:24;;;;;;;2.60;1.73;;;;;;;10.91;98.33;99565.56;6286334;22;40739;-87
2024/02/18 21:25:53;;;;;;;1.63;1.47;;;;;;;10.94;99.26;99568.91;6313462;22;39946;-90
2024/02/18 21:28:21;;;;;;;1.33;1.23;;;;;;;10.82;99.96;99555.44;6288112;22;43592;-88
2024/02/18 21:30:48;;;;;;;1.90;1.33;;;;;;;10.90;100.00;99570.00;6287876;22;42137;-89
2024/02/18 21:33:16;;;;;;;1.53;1.37;;;;;;;10.91;100.00;99571.72;6313377;22;41078;-90
2024/02/18 21:35:45;;;;;;;0.90;0.90;;;;;;;10.86;100.00;99578.19;6288584;22;39069;-87
2024/02/18 21:38:12;;;;;;;1.40;1.27;;;;;;;10.78;100.00;99549.44;6288587;22;41171;-87
2024/02/18 21:40:40;;;;;;;1.33;1.10;;;;;;;10.82;100.00;99555.44;6291695;22;41648;-85
2024/02/18 21:43:09;;;;;;;1.13;1.00;;;;;;;10.90;100.00;99564.69;6327994;22;41853;-86
2024/02/18 21:45:37;;;;;;;1.47;1.23;;;;;;;10.84;100.00;99554.44;6338211;22;39213;-87
2024/02/18 21:48:05;;;;;;;0.97;0.87;;;;;;;10.96;100.00;99568.81;6287875;22;41019;-89
2024/02/18 21:50:35;;;;;;;1.10;1.00;;;;;;;10.92;100.00;99562.81;6287284;22;41646;-87
2024/02/18 21:53:02;;;;;;;2.23;1.17;;;;;;;10.89;99.63;99546.22;6287503;22;42443;-87
2024/02/18 21:55:30;;;;;;;1.80;1.07;;;;;;;11.03;99.69;99564.91;6287490;22;39095;-90
2024/02/18 21:57:57;;;;;;;1.07;0.90;;;;;;;10.96;99.92;99543.19;6287341;22;40872;-87
2024/02/18 22:00:26;;;;;;;1.20;1.10;;;;;;;10.96;99.82;99543.19;6313959;22;42642;-87
2024/02/18 22:02:54;;;;;;;1.30;1.00;;;;;;;10.95;99.39;99541.47;6342091;22;43316;-87
2024/02/18 22:05:22;;;;;;;1.70;1.07;;;;;;;10.99;99.32;99535.06;6288727;22;39410;-86
2024/02/18 22:07:49;;;;;;;1.00;0.90;;;;;;;11.11;98.88;99558.28;6289666;22;40907;-87
2024/02/18 22:10:18;;;;;;;1.27;1.10;;;;;;;11.01;98.95;99538.47;6315570;22;43744;-88
2024/02/18 22:12:45;;;;;;;1.03;0.93;;;;;;;10.73;99.29;99495.84;6290484;22;42163;-84
2024/02/18 22:15:13;;;;;;;1.77;0.80;;;;;;;10.90;99.33;99522.28;6289237;22;38663;-84
2024/02/18 22:17:42;;;;;;;1.10;0.90;;;;;;;10.82;99.10;99513.91;6290433;22;42486;-84
2024/02/18 22:20:11;;;;;;;0.87;0.87;;;;;;;10.94;99.66;99539.75;6315549;22;41861;-87
2024/02/18 22:22:39;;;;;;;1.47;0.70;;;;;;;11.04;99.49;99546.28;6290437;22;43814;-86
2024/02/18 22:25:07;;;;;;;1.80;0.87;;;;;;;11.08;99.10;99553.13;6289758;22;38913;-87
2024/02/18 22:27:34;;;;;;;1.13;0.70;;;;;;;11.11;99.16;99546.81;6290077;22;41163;-87
2024/02/18 22:30:13;;;;;;;1.40;0.90;;;;;;;11.17;99.26;99559.72;6342652;22;42824;-85
2024/02/18 22:32:42;;;;;;;1.07;0.97;;;;;;;11.19;98.60;99554.34;6290477;22;42410;-87
2024/02/18 22:35:10;;;;;;;1.00;0.90;;;;;;;11.20;98.27;99550.75;6289439;22;40404;-86
2024/02/18 22:37:37;;;;;;;1.20;0.90;;;;;;;11.04;98.31;99516.25;6290091;22;42218;-86
2024/02/18 22:40:08;;;;;;;0.83;0.70;;;;;;;11.06;98.16;99528.50;6287553;22;41569;-86
2024/02/18 22:42:36;;;;;;;0.80;0.80;;;;;;;10.83;98.47;99483.81;6288693;22;40912;-87
2024/02/18 22:45:07;;;;;;;1.07;0.93;;;;;;;11.09;98.48;99533.63;6288783;22;39280;-86
2024/02/18 22:47:34;;;;;;;0.87;0.87;;;;;;;11.11;98.43;99534.41;6289056;22;41333;-86
2024/02/18 22:50:04;;;;;;;0.77;0.77;;;;;;;11.05;98.01;99532.09;6288311;22;42814;-86
2024/02/18 22:52:32;;;;;;;0.93;0.77;;;;;;;11.13;98.23;99540.47;6314621;22;42346;-88
2024/02/18 22:54:59;;;;;;;0.90;0.90;;;;;;;11.10;97.89;99523.91;6314496;22;39969;-86
